Time,TemperatureF,DewpointF,PressureIn,WindDirection,WindDirectionDegrees,WindSpeedMPH,WindSpeedGustMPH,Humidity,HourlyPrecipIn,Conditions,Clouds,dailyrainin,SoftwareType,DateUTC
2013-01-11 00:08:00,30.0,19.0,29.66,SSW,213,3.0,9.0,64,0.00,,,0.00,weatherlink.com 1.10,2013-01-11 07:08:00,
2013-01-11 00:23:00,29.0,19.0,29.66,North,354,2.0,8.0,67,0.00,,,0.00,weatherlink.com 1.10,2013-01-11 07:23:00,
2013-01-11 00:53:00,27.8,21.0,29.65,NW,312,3.0,8.0,74,0.00,,,0.00,weatherlink.com 1.10,2013-01-11 07:53:00,
2013-01-11 01:08:00,27.8,21.0,29.65,ENE,70,3.0,6.0,76,0.00,,,0.00,weatherlink.com 1.10,2013-01-11 08:08:00,
2013-01-11 01:23:00,27.0,21.0,29.65,West,278,5.0,8.0,78,0.00,,,0.00,weatherlink.com 1.10,2013-01-11 08:23:00,
2013-01-11 01:38:00,26.1,19.0,29.65,NW,322,4.0,10.0,74,0.00,,,0.00,weatherlink.com 1.10,2013-01-11 08:38:00,
2013-01-11 01:53:00,25.4,18.0,29.66,NE,54,1.0,8.0,74,0.00,,,0.00,weatherlink.com 1.10,2013-01-11 08:53:00,
2013-01-11 02:08:00,24.8,18.0,29.67,North,354,7.0,11.0,76,0.00,,,0.00,weatherlink.com 1.10,2013-01-11 09:08:00,
2013-01-11 02:23:00,24.7,18.0,29.67,NW,324,4.0,10.0,77,0.00,,,0.00,weatherlink.com 1.10,2013-01-11 09:23:00,
2013-01-11 02:38:00,24.7,19.0,29.67,NW,314,3.0,9.0,78,0.00,,,0.00,weatherlink.com 1.10,2013-01-11 09:38:00,
2013-01-11 02:53:00,24.2,19.0,29.66,NNW,337,10.0,14.0,80,0.00,,,0.00,weatherlink.com 1.10,2013-01-11 09:53:00,
2013-01-11 03:08:00,23.9,19.0,29.67,NW,321,6.0,10.0,80,0.00,,,0.00,weatherlink.com 1.10,2013-01-11 10:08:00,
2013-01-11 03:23:00,23.8,19.0,29.67,NE,38,4.0,6.0,81,0.00,,,0.00,weatherlink.com 1.10,2013-01-11 10:23:00,
2013-01-11 03:38:00,23.6,18.0,29.67,ENE,58,3.0,5.0,80,0.00,,,0.00,weatherlink.com 1.10,2013-01-11 10:38:00,
2013-01-11 03:53:00,23.2,18.0,29.67,East,98,3.0,6.0,79,0.00,,,0.00,weatherlink.com 1.10,2013-01-11 10:53:00,
2013-01-11 04:08:00,22.4,17.0,29.67,East,99,1.0,7.0,80,0.00,,,0.00,weatherlink.com 1.10,2013-01-11 11:08:00,
2013-01-11 04:23:00,22.4,17.0,29.67,NNW,343,3.0,3.0,81,0.00,,,0.00,weatherlink.com 1.10,2013-01-11 11:23:00,
2013-01-11 04:38:00,22.1,18.0,29.68,NNW,343,1.0,4.0,83,0.00,,,0.00,weatherlink.com 1.10,2013-01-11 11:38:00,
2013-01-11 04:53:00,21.8,18.0,29.68,NNW,343,2.0,4.0,84,0.00,,,0.00,weatherlink.com 1.10,2013-01-11 11:53:00,
2013-01-11 05:08:00,21.4,16.0,29.70,ENE,78,5.0,8.0,81,0.00,,,0.00,weatherlink.com 1.10,2013-01-11 12:08:00,
2013-01-11 05:23:00,19.5,15.0,29.70,ESE,123,9.0,10.0,81,0.00,,,0.00,weatherlink.com 1.10,2013-01-11 12:23:00,
2013-01-11 05:38:00,18.6,14.0,29.70,SE,130,2.0,3.0,82,0.00,,,0.00,weatherlink.com 1.10,2013-01-11 12:38:00,
2013-01-11 05:53:00,17.8,14.0,29.72,SE,128,4.0,6.0,83,0.00,,,0.00,weatherlink.com 1.10,2013-01-11 12:53:00,
2013-01-11 06:08:00,16.1,12.0,29.73,East,95,9.0,11.0,82,0.00,,,0.00,weatherlink.com 1.10,2013-01-11 13:08:00,
2013-01-11 06:24:00,14.8,11.0,29.73,ESE,106,7.0,7.0,83,0.00,,,0.00,weatherlink.com 1.10,2013-01-11 13:24:00,
2013-01-11 06:39:00,13.8,9.0,29.73,East,97,2.0,9.0,82,0.00,,,0.00,weatherlink.com 1.10,2013-01-11 13:39:00,
2013-01-11 06:54:00,13.1,9.0,29.74,SE,140,6.0,7.0,82,0.00,,,0.00,weatherlink.com 1.10,2013-01-11 13:54:00,
2013-01-11 07:09:00,12.8,8.0,29.75,SE,141,4.0,4.0,82,0.00,,,0.00,weatherlink.com 1.10,2013-01-11 14:09:00,
2013-01-11 07:24:00,12.9,8.0,29.77,South,176,2.0,8.0,82,0.00,,,0.00,weatherlink.com 1.10,2013-01-11 14:24:00,
2013-01-11 07:39:00,12.4,8.0,29.78,SSE,160,8.0,13.0,81,0.00,,,0.00,weatherlink.com 1.10,2013-01-11 14:39:00,
2013-01-11 07:54:00,12.1,8.0,29.78,South,170,3.0,12.0,82,0.00,,,0.00,weatherlink.com 1.10,2013-01-11 14:54:00,
2013-01-11 08:09:00,12.1,7.0,29.79,ESE,112,11.0,11.0,81,0.00,,,0.00,weatherlink.com 1.10,2013-01-11 15:09:00,
2013-01-11 08:24:00,11.6,7.0,29.80,ESE,111,3.0,11.0,81,0.00,,,0.00,weatherlink.com 1.10,2013-01-11 15:24:00,
2013-01-11 08:39:00,11.6,7.0,29.82,East,98,8.0,11.0,81,0.00,,,0.00,weatherlink.com 1.10,2013-01-11 15:39:00,
2013-01-11 08:54:00,10.9,6.0,29.83,SSE,160,4.0,8.0,81,0.00,,,0.00,weatherlink.com 1.10,2013-01-11 15:54:00,
2013-01-11 09:09:00,10.7,6.0,29.86,ESE,114,8.0,9.0,81,0.00,,,0.00,weatherlink.com 1.10,2013-01-11 16:09:00,
2013-01-11 09:24:00,10.4,6.0,29.88,South,187,12.0,12.0,81,0.00,,,0.00,weatherlink.com 1.10,2013-01-11 16:24:00,
2013-01-11 09:39:00,9.3,4.0,29.90,ESE,103,10.0,13.0,80,0.00,,,0.00,weatherlink.com 1.10,2013-01-11 16:39:00,
2013-01-11 09:54:00,9.0,4.0,29.92,SE,131,4.0,11.0,80,0.00,,,0.00,weatherlink.com 1.10,2013-01-11 16:54:00,
2013-01-11 10:09:00,9.2,4.0,29.92,South,177,4.0,7.0,80,0.00,,,0.00,weatherlink.com 1.10,2013-01-11 17:09:00,
2013-01-11 10:24:00,9.5,5.0,29.93,SSE,161,2.0,4.0,80,0.00,,,0.00,weatherlink.com 1.10,2013-01-11 17:24:00,
2013-01-11 10:39:00,9.7,4.0,29.93,ESE,118,2.0,5.0,79,0.00,,,0.00,weatherlink.com 1.10,2013-01-11 17:39:00,
2013-01-11 10:55:00,10.2,5.0,29.93,ESE,120,3.0,4.0,80,0.00,,,0.00,weatherlink.com 1.10,2013-01-11 17:55:00,
2013-01-11 11:10:00,10.7,5.0,29.95,ESE,114,10.0,11.0,79,0.00,,,0.00,weatherlink.com 1.10,2013-01-11 18:10:00,
2013-01-11 11:25:00,10.2,5.0,29.94,East,97,7.0,12.0,80,0.00,,,0.00,weatherlink.com 1.10,2013-01-11 18:25:00,
2013-01-11 11:40:00,10.4,5.0,29.95,ESE,110,8.0,11.0,78,0.00,,,0.00,weatherlink.com 1.10,2013-01-11 18:40:00,
2013-01-11 11:55:00,10.4,5.0,29.94,SSE,148,5.0,9.0,79,0.00,,,0.00,weatherlink.com 1.10,2013-01-11 18:55:00,
2013-01-11 12:10:00,9.9,4.0,29.94,East,83,9.0,11.0,78,0.00,,,0.00,weatherlink.com 1.10,2013-01-11 19:10:00,
2013-01-11 12:25:00,9.3,4.0,29.95,ENE,73,5.0,11.0,79,0.00,,,0.00,weatherlink.com 1.10,2013-01-11 19:25:00,
2013-01-11 12:40:00,9.0,3.0,29.96,East,79,3.0,12.0,78,0.00,,,0.00,weatherlink.com 1.10,2013-01-11 19:40:00,
2013-01-11 12:55:00,9.0,3.0,29.96,NE,40,4.0,8.0,78,0.00,,,0.00,weatherlink.com 1.10,2013-01-11 19:55:00,
2013-01-11 13:10:00,8.6,3.0,29.98,NE,37,1.0,6.0,79,0.00,,,0.00,weatherlink.com 1.10,2013-01-11 20:10:00,
2013-01-11 13:25:00,10.5,5.0,29.98,ENE,60,1.0,2.0,79,0.00,,,0.00,weatherlink.com 1.10,2013-01-11 20:25:00,
2013-01-11 13:40:00,10.7,5.0,29.99,SW,218,2.0,3.0,78,0.00,,,0.00,weatherlink.com 1.10,2013-01-11 20:40:00,
2013-01-11 13:55:00,10.4,5.0,30.00,SE,140,2.0,7.0,78,0.00,,,0.00,weatherlink.com 1.10,2013-01-11 20:55:00,
2013-01-11 14:10:00,9.0,3.0,30.02,ESE,114,10.0,14.0,77,0.00,,,0.00,weatherlink.com 1.10,2013-01-11 21:10:00,
2013-01-11 14:26:00,7.6,2.0,30.03,ESE,112,15.0,16.0,78,0.00,,,0.00,weatherlink.com 1.10,2013-01-11 21:26:00,
2013-01-11 14:41:00,7.0,2.0,30.05,ENE,76,10.0,15.0,78,0.00,,,0.00,weatherlink.com 1.10,2013-01-11 21:41:00,
2013-01-11 14:56:00,6.7,1.0,30.07,East,100,8.0,16.0,77,0.00,,,0.00,weatherlink.com 1.10,2013-01-11 21:56:00,
2013-01-11 15:11:00,6.5,1.0,30.08,ENE,66,4.0,15.0,77,0.00,,,0.00,weatherlink.com 1.10,2013-01-11 22:11:00,
2013-01-11 15:26:00,6.3,1.0,30.10,SSE,166,6.0,9.0,77,0.00,,,0.00,weatherlink.com 1.10,2013-01-11 22:26:00,
2013-01-11 15:41:00,6.0,0.0,30.11,SE,129,6.0,11.0,77,0.00,,,0.00,weatherlink.com 1.10,2013-01-11 22:41:00,
2013-01-11 15:56:00,5.8,0.0,30.12,SSE,160,3.0,9.0,77,0.00,,,0.00,weatherlink.com 1.10,2013-01-11 22:56:00,
2013-01-11 16:11:00,5.2,-1.0,30.14,SSE,165,6.0,12.0,77,0.00,,,0.00,weatherlink.com 1.10,2013-01-11 23:11:00,
2013-01-11 16:26:00,5.0,-1.0,30.15,SSE,164,5.0,9.0,77,0.00,,,0.00,weatherlink.com 1.10,2013-01-11 23:26:00,
2013-01-11 16:41:00,4.8,-1.0,30.15,SSE,165,5.0,9.0,77,0.00,,,0.00,weatherlink.com 1.10,2013-01-11 23:41:00,
2013-01-11 16:56:00,4.8,-1.0,30.16,SSE,152,2.0,8.0,77,0.00,,,0.00,weatherlink.com 1.10,2013-01-11 23:56:00,
2013-01-11 17:11:00,4.5,-1.0,30.17,South,176,3.0,9.0,77,0.00,,,0.00,weatherlink.com 1.10,2013-01-12 00:11:00,
2013-01-11 17:26:00,4.1,-2.0,30.19,SE,125,4.0,10.0,77,0.00,,,0.00,weatherlink.com 1.10,2013-01-12 00:26:00,
2013-01-11 17:42:00,4.1,-2.0,30.20,South,185,6.0,12.0,77,0.00,,,0.00,weatherlink.com 1.10,2013-01-12 00:42:00,
2013-01-11 17:57:00,4.1,-2.0,30.21,SE,131,5.0,9.0,77,0.00,,,0.00,weatherlink.com 1.10,2013-01-12 00:57:00,
2013-01-11 18:12:00,3.9,-2.0,30.23,SE,128,4.0,13.0,76,0.00,,,0.00,weatherlink.com 1.10,2013-01-12 01:12:00,
2013-01-11 18:27:00,3.7,-2.0,30.25,SSE,166,5.0,14.0,77,0.00,,,0.00,weatherlink.com 1.10,2013-01-12 01:27:00,
2013-01-11 18:42:00,3.7,-2.0,30.26,South,169,6.0,12.0,76,0.00,,,0.00,weatherlink.com 1.10,2013-01-12 01:42:00,
2013-01-11 18:57:00,3.7,-2.0,30.27,SSE,163,5.0,12.0,76,0.00,,,0.00,weatherlink.com 1.10,2013-01-12 01:57:00,
2013-01-11 19:12:00,3.5,-3.0,30.28,SE,131,7.0,11.0,76,0.00,,,0.00,weatherlink.com 1.10,2013-01-12 02:12:00,
2013-01-11 19:27:00,3.4,-3.0,30.29,SE,137,13.0,13.0,76,0.00,,,0.00,weatherlink.com 1.10,2013-01-12 02:27:00,
2013-01-11 19:42:00,3.2,-3.0,30.31,SSE,156,7.0,13.0,76,0.00,,,0.00,weatherlink.com 1.10,2013-01-12 02:42:00,
2013-01-11 19:57:00,3.0,-3.0,30.32,South,184,6.0,13.0,76,0.00,,,0.00,weatherlink.com 1.10,2013-01-12 02:57:00,
2013-01-11 20:12:00,3.0,-3.0,30.33,South,178,4.0,11.0,76,0.00,,,0.00,weatherlink.com 1.10,2013-01-12 03:12:00,
2013-01-11 20:27:00,2.8,-3.0,30.34,SSE,154,7.0,13.0,76,0.00,,,0.00,weatherlink.com 1.10,2013-01-12 03:27:00,
2013-01-11 20:42:00,2.6,-4.0,30.35,SE,135,3.0,12.0,75,0.00,,,0.00,weatherlink.com 1.10,2013-01-12 03:42:00,
2013-01-11 20:57:00,2.6,-3.0,30.35,SSE,153,2.0,5.0,76,0.00,,,0.00,weatherlink.com 1.10,2013-01-12 03:57:00,
2013-01-11 21:13:00,2.6,-4.0,30.36,South,185,1.0,4.0,75,0.00,,,0.00,weatherlink.com 1.10,2013-01-12 04:13:00,
2013-01-11 21:28:00,2.8,-3.0,30.36,South,185,3.0,5.0,75,0.00,,,0.00,weatherlink.com 1.10,2013-01-12 04:28:00,
2013-01-11 21:58:00,3.0,-3.0,30.38,South,185,3.0,4.0,76,0.00,,,0.00,weatherlink.com 1.10,2013-01-12 04:58:00,
2013-01-11 22:13:00,2.8,-3.0,30.39,South,185,0.0,3.0,76,0.00,,,0.00,weatherlink.com 1.10,2013-01-12 05:13:00,
2013-01-11 22:28:00,2.8,-3.0,30.40,South,185,0.0,0.0,77,0.00,,,0.00,weatherlink.com 1.10,2013-01-12 05:28:00,
2013-01-11 22:43:00,2.0,-4.0,30.41,ESE,114,3.0,5.0,76,0.00,,,0.00,weatherlink.com 1.10,2013-01-12 05:43:00,
2013-01-11 22:58:00,1.5,-5.0,30.42,South,182,3.0,6.0,75,0.00,,,0.00,weatherlink.com 1.10,2013-01-12 05:58:00,
2013-01-11 23:13:00,1.5,-4.0,30.43,SSW,206,3.0,5.0,76,0.00,,,0.00,weatherlink.com 1.10,2013-01-12 06:13:00,
2013-01-11 23:28:00,0.7,-6.0,30.43,SSW,210,1.0,4.0,74,0.00,,,0.00,weatherlink.com 1.10,2013-01-12 06:28:00,
2013-01-11 23:43:00,-1.0,-7.0,30.43,SSW,210,0.0,3.0,74,0.00,,,0.00,weatherlink.com 1.10,2013-01-12 06:43:00,
2013-01-11 23:58:00,-1.4,-8.0,30.44,SSW,210,0.0,0.0,74,0.00,,,0.00,weatherlink.com 1.10,2013-01-12 06:58:00,